sensor_id;sensor_type;location;lat;lon;timestamp;P1;durP1;ratioP1;P2;durP2;ratioP2
70132;SDS011;57495;49.922;7.966;2023-05-16T00:01:02;20.60;;;12.38;;
70132;SDS011;57495;49.922;7.966;2023-05-16T00:03:04;19.07;;;11.57;;
70132;SDS011;57495;49.922;7.966;2023-05-16T00:05:06;19.77;;;12.13;;
70132;SDS011;57495;49.922;7.966;2023-05-16T00:07:09;19.23;;;11.85;;
70132;SDS011;57495;49.922;7.966;2023-05-16T00:09:10;19.05;;;11.27;;
70132;SDS011;57495;49.922;7.966;2023-05-16T00:11:12;19.35;;;11.43;;
70132;SDS011;57495;49.922;7.966;2023-05-16T00:13:13;18.05;;;11.02;;
70132;SDS011;57495;49.922;7.966;2023-05-16T00:15:15;18.90;;;10.90;;
70132;SDS011;57495;49.922;7.966;2023-05-16T00:17:18;17.85;;;10.98;;
70132;SDS011;57495;49.922;7.966;2023-05-16T00:19:20;17.58;;;11.15;;
70132;SDS011;57495;49.922;7.966;2023-05-16T00:21:21;19.10;;;11.18;;
70132;SDS011;57495;49.922;7.966;2023-05-16T00:23:22;24.42;;;12.25;;
70132;SDS011;57495;49.922;7.966;2023-05-16T00:25:24;18.70;;;11.10;;
70132;SDS011;57495;49.922;7.966;2023-05-16T00:27:25;19.63;;;11.18;;
70132;SDS011;57495;49.922;7.966;2023-05-16T00:29:27;18.27;;;11.30;;
70132;SDS011;57495;49.922;7.966;2023-05-16T00:31:28;18.73;;;11.07;;
70132;SDS011;57495;49.922;7.966;2023-05-16T00:33:31;17.93;;;11.57;;
70132;SDS011;57495;49.922;7.966;2023-05-16T00:35:33;18.10;;;10.45;;
70132;SDS011;57495;49.922;7.966;2023-05-16T00:37:35;20.02;;;11.48;;
70132;SDS011;57495;49.922;7.966;2023-05-16T00:39:37;18.55;;;10.85;;
70132;SDS011;57495;49.922;7.966;2023-05-16T00:41:38;19.33;;;11.60;;
70132;SDS011;57495;49.922;7.966;2023-05-16T00:43:40;18.50;;;11.00;;
70132;SDS011;57495;49.922;7.966;2023-05-16T00:45:41;19.10;;;11.55;;
70132;SDS011;57495;49.922;7.966;2023-05-16T00:47:43;21.10;;;11.50;;
70132;SDS011;57495;49.922;7.966;2023-05-16T00:49:45;21.60;;;11.77;;
70132;SDS011;57495;49.922;7.966;2023-05-16T00:51:47;19.50;;;11.02;;
70132;SDS011;57495;49.922;7.966;2023-05-16T00:53:49;19.10;;;11.77;;
70132;SDS011;57495;49.922;7.966;2023-05-16T00:55:50;20.00;;;11.88;;
70132;SDS011;57495;49.922;7.966;2023-05-16T00:57:52;18.65;;;11.38;;
70132;SDS011;57495;49.922;7.966;2023-05-16T00:59:54;19.70;;;11.25;;
70132;SDS011;57495;49.922;7.966;2023-05-16T01:01:55;19.48;;;11.27;;
70132;SDS011;57495;49.922;7.966;2023-05-16T01:03:57;18.23;;;11.05;;
70132;SDS011;57495;49.922;7.966;2023-05-16T01:06:00;19.65;;;11.35;;
70132;SDS011;57495;49.922;7.966;2023-05-16T01:08:02;22.83;;;10.73;;
70132;SDS011;57495;49.922;7.966;2023-05-16T01:10:06;19.58;;;10.68;;
70132;SDS011;57495;49.922;7.966;2023-05-16T01:12:10;18.70;;;10.18;;
70132;SDS011;57495;49.922;7.966;2023-05-16T01:14:16;17.77;;;9.90;;
70132;SDS011;57495;49.922;7.966;2023-05-16T01:16:25;18.90;;;10.25;;
70132;SDS011;57495;49.922;7.966;2023-05-16T01:18:34;17.77;;;9.77;;
70132;SDS011;57495;49.922;7.966;2023-05-16T01:20:42;17.42;;;9.50;;
70132;SDS011;57495;49.922;7.966;2023-05-16T01:23:03;17.42;;;9.20;;
70132;SDS011;57495;49.922;7.966;2023-05-16T01:25:10;18.63;;;9.18;;
70132;SDS011;57495;49.922;7.966;2023-05-16T01:27:23;19.08;;;10.60;;
70132;SDS011;57495;49.922;7.966;2023-05-16T01:29:26;17.23;;;10.63;;
70132;SDS011;57495;49.922;7.966;2023-05-16T01:31:27;17.70;;;9.65;;
70132;SDS011;57495;49.922;7.966;2023-05-16T01:33:29;21.00;;;10.45;;
70132;SDS011;57495;49.922;7.966;2023-05-16T01:35:30;19.30;;;10.13;;
70132;SDS011;57495;49.922;7.966;2023-05-16T01:37:33;18.88;;;10.05;;
70132;SDS011;57495;49.922;7.966;2023-05-16T01:39:40;21.10;;;10.55;;
70132;SDS011;57495;49.922;7.966;2023-05-16T01:41:46;22.35;;;11.48;;
70132;SDS011;57495;49.922;7.966;2023-05-16T01:43:58;22.02;;;10.10;;
70132;SDS011;57495;49.922;7.966;2023-05-16T01:46:04;23.40;;;10.55;;
70132;SDS011;57495;49.922;7.966;2023-05-16T01:48:15;21.35;;;11.07;;
70132;SDS011;57495;49.922;7.966;2023-05-16T01:50:22;18.40;;;10.50;;
70132;SDS011;57495;49.922;7.966;2023-05-16T01:52:26;20.02;;;10.35;;
70132;SDS011;57495;49.922;7.966;2023-05-16T01:54:31;25.33;;;11.25;;
70132;SDS011;57495;49.922;7.966;2023-05-16T01:56:34;21.30;;;10.50;;
70132;SDS011;57495;49.922;7.966;2023-05-16T01:58:37;19.05;;;9.88;;
70132;SDS011;57495;49.922;7.966;2023-05-16T02:00:40;21.77;;;10.73;;
70132;SDS011;57495;49.922;7.966;2023-05-16T02:02:42;19.48;;;11.05;;
70132;SDS011;57495;49.922;7.966;2023-05-16T02:04:43;20.08;;;10.25;;
70132;SDS011;57495;49.922;7.966;2023-05-16T02:06:45;21.67;;;10.55;;
70132;SDS011;57495;49.922;7.966;2023-05-16T02:08:46;19.25;;;10.00;;
70132;SDS011;57495;49.922;7.966;2023-05-16T02:10:48;17.83;;;10.27;;
70132;SDS011;57495;49.922;7.966;2023-05-16T02:12:50;21.42;;;11.00;;
70132;SDS011;57495;49.922;7.966;2023-05-16T02:14:52;19.83;;;9.18;;
70132;SDS011;57495;49.922;7.966;2023-05-16T02:16:54;16.90;;;9.75;;
70132;SDS011;57495;49.922;7.966;2023-05-16T02:18:56;19.08;;;9.55;;
70132;SDS011;57495;49.922;7.966;2023-05-16T02:20:57;16.90;;;8.93;;
70132;SDS011;57495;49.922;7.966;2023-05-16T02:22:59;16.05;;;8.77;;
70132;SDS011;57495;49.922;7.966;2023-05-16T02:25:02;16.52;;;8.43;;
70132;SDS011;57495;49.922;7.966;2023-05-16T02:27:04;15.98;;;7.95;;
70132;SDS011;57495;49.922;7.966;2023-05-16T02:29:05;18.33;;;7.88;;
70132;SDS011;57495;49.922;7.966;2023-05-16T02:31:07;17.55;;;7.85;;
70132;SDS011;57495;49.922;7.966;2023-05-16T02:33:10;16.20;;;7.43;;
70132;SDS011;57495;49.922;7.966;2023-05-16T02:35:11;15.45;;;7.28;;
70132;SDS011;57495;49.922;7.966;2023-05-16T02:37:13;13.05;;;6.22;;
70132;SDS011;57495;49.922;7.966;2023-05-16T02:39:14;12.68;;;5.75;;
70132;SDS011;57495;49.922;7.966;2023-05-16T02:41:15;11.90;;;5.30;;
70132;SDS011;57495;49.922;7.966;2023-05-16T02:43:17;15.35;;;5.30;;
70132;SDS011;57495;49.922;7.966;2023-05-16T02:45:18;12.52;;;5.13;;
70132;SDS011;57495;49.922;7.966;2023-05-16T02:47:20;11.65;;;5.20;;
70132;SDS011;57495;49.922;7.966;2023-05-16T02:49:23;9.93;;;5.30;;
70132;SDS011;57495;49.922;7.966;2023-05-16T02:51:24;11.90;;;4.53;;
70132;SDS011;57495;49.922;7.966;2023-05-16T02:53:27;9.48;;;4.47;;
70132;SDS011;57495;49.922;7.966;2023-05-16T02:55:29;11.13;;;4.75;;
70132;SDS011;57495;49.922;7.966;2023-05-16T02:57:30;9.20;;;4.07;;
70132;SDS011;57495;49.922;7.966;2023-05-16T02:59:31;9.65;;;4.20;;
70132;SDS011;57495;49.922;7.966;2023-05-16T03:01:33;8.02;;;3.58;;
70132;SDS011;57495;49.922;7.966;2023-05-16T03:03:34;9.00;;;4.07;;
70132;SDS011;57495;49.922;7.966;2023-05-16T03:05:37;7.57;;;3.25;;
70132;SDS011;57495;49.922;7.966;2023-05-16T03:07:40;6.88;;;3.20;;
70132;SDS011;57495;49.922;7.966;2023-05-16T03:09:41;8.85;;;3.42;;
70132;SDS011;57495;49.922;7.966;2023-05-16T03:11:43;6.95;;;3.28;;
70132;SDS011;57495;49.922;7.966;2023-05-16T03:13:44;6.05;;;2.80;;
70132;SDS011;57495;49.922;7.966;2023-05-16T03:15:46;6.25;;;2.70;;
70132;SDS011;57495;49.922;7.966;2023-05-16T03:17:47;6.60;;;2.65;;
70132;SDS011;57495;49.922;7.966;2023-05-16T03:19:48;5.82;;;2.60;;
70132;SDS011;57495;49.922;7.966;2023-05-16T03:21:52;6.57;;;2.40;;
70132;SDS011;57495;49.922;7.966;2023-05-16T03:23:54;5.15;;;1.73;;
70132;SDS011;57495;49.922;7.966;2023-05-16T03:25:55;4.88;;;1.20;;
70132;SDS011;57495;49.922;7.966;2023-05-16T03:27:57;4.20;;;1.60;;
70132;SDS011;57495;49.922;7.966;2023-05-16T03:29:58;3.60;;;0.95;;
70132;SDS011;57495;49.922;7.966;2023-05-16T03:32:00;3.00;;;1.00;;
70132;SDS011;57495;49.922;7.966;2023-05-16T03:34:01;3.78;;;0.80;;
70132;SDS011;57495;49.922;7.966;2023-05-16T03:36:03;3.15;;;0.88;;
70132;SDS011;57495;49.922;7.966;2023-05-16T03:38:06;3.45;;;0.70;;
70132;SDS011;57495;49.922;7.966;2023-05-16T03:40:08;3.65;;;0.73;;
70132;SDS011;57495;49.922;7.966;2023-05-16T03:42:10;2.58;;;0.52;;
70132;SDS011;57495;49.922;7.966;2023-05-16T03:44:11;3.20;;;0.93;;
70132;SDS011;57495;49.922;7.966;2023-05-16T03:46:13;3.30;;;0.90;;
70132;SDS011;57495;49.922;7.966;2023-05-16T03:48:14;2.63;;;0.70;;
70132;SDS011;57495;49.922;7.966;2023-05-16T03:50:16;3.50;;;1.00;;
70132;SDS011;57495;49.922;7.966;2023-05-16T03:52:17;2.75;;;0.52;;
70132;SDS011;57495;49.922;7.966;2023-05-16T03:54:20;2.13;;;0.40;;
70132;SDS011;57495;49.922;7.966;2023-05-16T03:56:22;4.85;;;0.70;;
70132;SDS011;57495;49.922;7.966;2023-05-16T03:58:23;3.00;;;0.77;;
70132;SDS011;57495;49.922;7.966;2023-05-16T04:00:25;2.63;;;0.68;;
70132;SDS011;57495;49.922;7.966;2023-05-16T04:02:26;3.70;;;0.90;;
70132;SDS011;57495;49.922;7.966;2023-05-16T04:04:28;3.40;;;0.77;;
70132;SDS011;57495;49.922;7.966;2023-05-16T04:06:29;3.92;;;0.70;;
70132;SDS011;57495;49.922;7.966;2023-05-16T04:08:31;2.88;;;0.95;;
70132;SDS011;57495;49.922;7.966;2023-05-16T04:10:34;2.53;;;0.57;;
70132;SDS011;57495;49.922;7.966;2023-05-16T04:12:35;2.63;;;0.73;;
70132;SDS011;57495;49.922;7.966;2023-05-16T04:14:37;2.58;;;0.60;;
70132;SDS011;57495;49.922;7.966;2023-05-16T04:16:38;2.53;;;0.68;;
70132;SDS011;57495;49.922;7.966;2023-05-16T04:18:40;2.50;;;0.63;;
70132;SDS011;57495;49.922;7.966;2023-05-16T04:20:41;3.65;;;0.80;;
70132;SDS011;57495;49.922;7.966;2023-05-16T04:22:43;3.03;;;0.98;;
70132;SDS011;57495;49.922;7.966;2023-05-16T04:24:46;3.22;;;0.70;;
70132;SDS011;57495;49.922;7.966;2023-05-16T04:26:49;2.50;;;0.65;;
70132;SDS011;57495;49.922;7.966;2023-05-16T04:28:50;2.88;;;1.20;;
70132;SDS011;57495;49.922;7.966;2023-05-16T04:30:52;2.75;;;0.98;;
70132;SDS011;57495;49.922;7.966;2023-05-16T04:32:53;2.42;;;0.80;;
70132;SDS011;57495;49.922;7.966;2023-05-16T04:34:56;3.25;;;0.70;;
70132;SDS011;57495;49.922;7.966;2023-05-16T04:36:57;2.53;;;0.73;;
70132;SDS011;57495;49.922;7.966;2023-05-16T04:38:59;2.85;;;0.85;;
70132;SDS011;57495;49.922;7.966;2023-05-16T04:41:00;2.45;;;0.65;;
70132;SDS011;57495;49.922;7.966;2023-05-16T04:43:04;2.22;;;0.60;;
70132;SDS011;57495;49.922;7.966;2023-05-16T04:45:06;3.08;;;0.65;;
70132;SDS011;57495;49.922;7.966;2023-05-16T04:47:10;2.42;;;0.45;;
70132;SDS011;57495;49.922;7.966;2023-05-16T04:49:12;2.00;;;0.57;;
70132;SDS011;57495;49.922;7.966;2023-05-16T04:51:13;3.22;;;0.60;;
70132;SDS011;57495;49.922;7.966;2023-05-16T04:53:15;2.35;;;0.60;;
70132;SDS011;57495;49.922;7.966;2023-05-16T04:55:16;2.47;;;0.60;;
70132;SDS011;57495;49.922;7.966;2023-05-16T04:57:18;2.25;;;0.50;;
70132;SDS011;57495;49.922;7.966;2023-05-16T04:59:21;2.47;;;0.70;;
70132;SDS011;57495;49.922;7.966;2023-05-16T05:01:22;2.75;;;0.68;;
70132;SDS011;57495;49.922;7.966;2023-05-16T05:03:23;2.70;;;0.35;;
70132;SDS011;57495;49.922;7.966;2023-05-16T05:05:25;1.95;;;0.40;;
70132;SDS011;57495;49.922;7.966;2023-05-16T05:07:26;1.83;;;0.50;;
70132;SDS011;57495;49.922;7.966;2023-05-16T05:09:28;3.22;;;0.60;;
70132;SDS011;57495;49.922;7.966;2023-05-16T05:11:29;2.58;;;0.75;;
70132;SDS011;57495;49.922;7.966;2023-05-16T05:13:31;2.55;;;0.80;;
70132;SDS011;57495;49.922;7.966;2023-05-16T05:15:33;2.30;;;0.40;;
70132;SDS011;57495;49.922;7.966;2023-05-16T05:17:35;3.20;;;0.90;;
70132;SDS011;57495;49.922;7.966;2023-05-16T05:19:37;1.95;;;0.40;;
70132;SDS011;57495;49.922;7.966;2023-05-16T05:21:39;2.67;;;0.60;;
70132;SDS011;57495;49.922;7.966;2023-05-16T05:23:40;4.55;;;1.00;;
70132;SDS011;57495;49.922;7.966;2023-05-16T05:25:41;3.22;;;0.85;;
70132;SDS011;57495;49.922;7.966;2023-05-16T05:27:43;2.20;;;0.43;;
70132;SDS011;57495;49.922;7.966;2023-05-16T05:29:44;1.67;;;0.20;;
70132;SDS011;57495;49.922;7.966;2023-05-16T05:31:47;2.03;;;0.40;;
70132;SDS011;57495;49.922;7.966;2023-05-16T05:33:48;1.42;;;0.38;;
70132;SDS011;57495;49.922;7.966;2023-05-16T05:35:50;2.92;;;0.50;;
70132;SDS011;57495;49.922;7.966;2023-05-16T05:37:53;2.13;;;0.30;;
70132;SDS011;57495;49.922;7.966;2023-05-16T05:39:54;2.33;;;0.43;;
70132;SDS011;57495;49.922;7.966;2023-05-16T05:41:56;2.20;;;0.50;;
70132;SDS011;57495;49.922;7.966;2023-05-16T05:43:57;2.30;;;0.40;;
70132;SDS011;57495;49.922;7.966;2023-05-16T05:45:59;3.03;;;0.20;;
70132;SDS011;57495;49.922;7.966;2023-05-16T05:48:02;3.15;;;0.40;;
70132;SDS011;57495;49.922;7.966;2023-05-16T05:50:04;4.50;;;0.73;;
70132;SDS011;57495;49.922;7.966;2023-05-16T05:52:06;2.50;;;0.45;;
70132;SDS011;57495;49.922;7.966;2023-05-16T05:54:08;3.70;;;0.80;;
70132;SDS011;57495;49.922;7.966;2023-05-16T05:56:10;2.15;;;0.47;;
70132;SDS011;57495;49.922;7.966;2023-05-16T05:58:11;2.03;;;0.47;;
70132;SDS011;57495;49.922;7.966;2023-05-16T06:00:13;1.95;;;0.50;;
70132;SDS011;57495;49.922;7.966;2023-05-16T06:02:15;1.77;;;0.30;;
70132;SDS011;57495;49.922;7.966;2023-05-16T06:04:17;3.05;;;0.32;;
70132;SDS011;57495;49.922;7.966;2023-05-16T06:06:19;2.42;;;0.60;;
70132;SDS011;57495;49.922;7.966;2023-05-16T06:08:20;2.70;;;0.40;;
70132;SDS011;57495;49.922;7.966;2023-05-16T06:10:22;2.60;;;0.40;;
70132;SDS011;57495;49.922;7.966;2023-05-16T06:12:23;2.47;;;0.50;;
70132;SDS011;57495;49.922;7.966;2023-05-16T06:14:24;3.05;;;0.30;;
70132;SDS011;57495;49.922;7.966;2023-05-16T06:16:26;1.80;;;0.32;;
70132;SDS011;57495;49.922;7.966;2023-05-16T06:18:27;1.98;;;0.30;;
70132;SDS011;57495;49.922;7.966;2023-05-16T06:20:31;2.72;;;0.38;;
70132;SDS011;57495;49.922;7.966;2023-05-16T06:22:32;1.55;;;0.20;;
70132;SDS011;57495;49.922;7.966;2023-05-16T06:24:34;1.67;;;0.17;;
70132;SDS011;57495;49.922;7.966;2023-05-16T06:26:35;1.77;;;0.40;;
70132;SDS011;57495;49.922;7.966;2023-05-16T06:28:36;1.90;;;0.30;;
70132;SDS011;57495;49.922;7.966;2023-05-16T06:30:38;3.55;;;0.30;;
70132;SDS011;57495;49.922;7.966;2023-05-16T06:32:39;2.00;;;0.50;;
70132;SDS011;57495;49.922;7.966;2023-05-16T06:34:41;1.60;;;0.50;;
70132;SDS011;57495;49.922;7.966;2023-05-16T06:36:44;1.75;;;0.32;;
70132;SDS011;57495;49.922;7.966;2023-05-16T06:38:45;1.23;;;0.15;;
70132;SDS011;57495;49.922;7.966;2023-05-16T06:40:46;2.03;;;0.30;;
70132;SDS011;57495;49.922;7.966;2023-05-16T06:42:48;2.13;;;0.30;;
70132;SDS011;57495;49.922;7.966;2023-05-16T06:44:49;1.35;;;0.20;;
70132;SDS011;57495;49.922;7.966;2023-05-16T06:46:51;1.90;;;0.35;;
70132;SDS011;57495;49.922;7.966;2023-05-16T06:48:52;2.58;;;0.30;;
70132;SDS011;57495;49.922;7.966;2023-05-16T06:50:54;1.08;;;0.20;;
70132;SDS011;57495;49.922;7.966;2023-05-16T06:52:57;1.45;;;0.20;;
70132;SDS011;57495;49.922;7.966;2023-05-16T06:54:59;2.05;;;0.20;;
70132;SDS011;57495;49.922;7.966;2023-05-16T06:57:01;1.30;;;0.20;;
70132;SDS011;57495;49.922;7.966;2023-05-16T06:59:02;1.67;;;0.20;;
70132;SDS011;57495;49.922;7.966;2023-05-16T07:01:04;1.50;;;0.20;;
70132;SDS011;57495;49.922;7.966;2023-05-16T07:03:05;1.33;;;0.20;;
70132;SDS011;57495;49.922;7.966;2023-05-16T07:05:07;1.30;;;0.13;;
70132;SDS011;57495;49.922;7.966;2023-05-16T07:07:09;2.17;;;0.30;;
70132;SDS011;57495;49.922;7.966;2023-05-16T07:09:12;0.88;;;0.20;;
70132;SDS011;57495;49.922;7.966;2023-05-16T07:11:13;3.95;;;0.20;;
70132;SDS011;57495;49.922;7.966;2023-05-16T07:13:15;1.40;;;0.20;;
70132;SDS011;57495;49.922;7.966;2023-05-16T07:15:16;1.05;;;0.20;;
70132;SDS011;57495;49.922;7.966;2023-05-16T07:17:18;1.70;;;0.25;;
70132;SDS011;57495;49.922;7.966;2023-05-16T07:19:19;2.97;;;0.30;;
70132;SDS011;57495;49.922;7.966;2023-05-16T07:21:20;2.85;;;0.40;;
70132;SDS011;57495;49.922;7.966;2023-05-16T07:23:22;1.73;;;0.20;;
70132;SDS011;57495;49.922;7.966;2023-05-16T07:25:25;1.10;;;0.20;;
70132;SDS011;57495;49.922;7.966;2023-05-16T07:27:26;3.40;;;0.30;;
70132;SDS011;57495;49.922;7.966;2023-05-16T07:29:28;1.55;;;0.20;;
70132;SDS011;57495;49.922;7.966;2023-05-16T07:31:30;0.90;;;0.13;;
70132;SDS011;57495;49.922;7.966;2023-05-16T07:33:31;1.70;;;0.25;;
70132;SDS011;57495;49.922;7.966;2023-05-16T07:35:33;5.93;;;0.75;;
70132;SDS011;57495;49.922;7.966;2023-05-16T07:37:34;2.00;;;0.50;;
70132;SDS011;57495;49.922;7.966;2023-05-16T07:39:36;2.28;;;0.40;;
70132;SDS011;57495;49.922;7.966;2023-05-16T07:41:39;2.38;;;0.70;;
70132;SDS011;57495;49.922;7.966;2023-05-16T07:43:40;2.50;;;0.45;;
70132;SDS011;57495;49.922;7.966;2023-05-16T07:45:41;2.00;;;0.40;;
70132;SDS011;57495;49.922;7.966;2023-05-16T07:47:43;3.97;;;0.60;;
70132;SDS011;57495;49.922;7.966;2023-05-16T07:49:44;3.35;;;1.13;;
70132;SDS011;57495;49.922;7.966;2023-05-16T07:51:46;2.28;;;0.60;;
70132;SDS011;57495;49.922;7.966;2023-05-16T07:53:47;2.67;;;0.68;;
70132;SDS011;57495;49.922;7.966;2023-05-16T07:55:49;2.22;;;0.40;;
70132;SDS011;57495;49.922;7.966;2023-05-16T07:57:51;3.42;;;0.60;;
70132;SDS011;57495;49.922;7.966;2023-05-16T07:59:53;4.85;;;0.40;;
70132;SDS011;57495;49.922;7.966;2023-05-16T08:01:55;2.05;;;0.30;;
70132;SDS011;57495;49.922;7.966;2023-05-16T08:03:56;1.70;;;0.28;;
70132;SDS011;57495;49.922;7.966;2023-05-16T08:05:58;2.38;;;0.40;;
70132;SDS011;57495;49.922;7.966;2023-05-16T08:07:59;3.97;;;0.50;;
70132;SDS011;57495;49.922;7.966;2023-05-16T08:10:01;2.60;;;0.45;;
70132;SDS011;57495;49.922;7.966;2023-05-16T08:12:02;3.50;;;0.80;;
70132;SDS011;57495;49.922;7.966;2023-05-16T08:14:06;6.15;;;0.60;;
70132;SDS011;57495;49.922;7.966;2023-05-16T08:16:07;3.25;;;0.82;;
70132;SDS011;57495;49.922;7.966;2023-05-16T08:18:11;4.40;;;1.23;;
70132;SDS011;57495;49.922;7.966;2023-05-16T08:20:14;5.28;;;1.20;;
70132;SDS011;57495;49.922;7.966;2023-05-16T08:22:15;4.25;;;1.70;;
70132;SDS011;57495;49.922;7.966;2023-05-16T08:24:17;3.33;;;0.80;;
70132;SDS011;57495;49.922;7.966;2023-05-16T08:26:18;4.95;;;1.45;;
70132;SDS011;57495;49.922;7.966;2023-05-16T08:28:20;3.40;;;0.80;;
70132;SDS011;57495;49.922;7.966;2023-05-16T08:30:24;4.55;;;0.90;;
70132;SDS011;57495;49.922;7.966;2023-05-16T08:32:26;4.65;;;1.80;;
70132;SDS011;57495;49.922;7.966;2023-05-16T08:34:29;4.53;;;1.35;;
70132;SDS011;57495;49.922;7.966;2023-05-16T08:36:31;2.83;;;0.75;;
70132;SDS011;57495;49.922;7.966;2023-05-16T08:38:33;6.05;;;1.75;;
70132;SDS011;57495;49.922;7.966;2023-05-16T08:40:35;4.18;;;1.35;;
70132;SDS011;57495;49.922;7.966;2023-05-16T08:42:37;5.13;;;1.63;;
70132;SDS011;57495;49.922;7.966;2023-05-16T08:44:39;4.97;;;1.65;;
70132;SDS011;57495;49.922;7.966;2023-05-16T08:46:42;8.07;;;1.13;;
70132;SDS011;57495;49.922;7.966;2023-05-16T08:48:46;5.07;;;1.20;;
70132;SDS011;57495;49.922;7.966;2023-05-16T08:50:52;5.65;;;1.00;;
70132;SDS011;57495;49.922;7.966;2023-05-16T08:52:53;7.55;;;1.45;;
70132;SDS011;57495;49.922;7.966;2023-05-16T08:54:55;5.82;;;1.33;;
70132;SDS011;57495;49.922;7.966;2023-05-16T08:56:59;5.40;;;1.90;;
70132;SDS011;57495;49.922;7.966;2023-05-16T08:59:01;8.05;;;1.70;;
70132;SDS011;57495;49.922;7.966;2023-05-16T09:01:04;5.65;;;2.17;;
70132;SDS011;57495;49.922;7.966;2023-05-16T09:03:09;7.07;;;2.30;;
70132;SDS011;57495;49.922;7.966;2023-05-16T09:05:11;9.90;;;2.85;;
70132;SDS011;57495;49.922;7.966;2023-05-16T09:07:14;8.38;;;2.40;;
70132;SDS011;57495;49.922;7.966;2023-05-16T09:09:15;8.38;;;3.08;;
70132;SDS011;57495;49.922;7.966;2023-05-16T09:11:17;10.38;;;3.10;;
70132;SDS011;57495;49.922;7.966;2023-05-16T09:13:20;8.10;;;2.45;;
70132;SDS011;57495;49.922;7.966;2023-05-16T09:15:22;8.48;;;2.20;;
70132;SDS011;57495;49.922;7.966;2023-05-16T09:17:23;7.95;;;1.70;;
70132;SDS011;57495;49.922;7.966;2023-05-16T09:19:26;8.30;;;2.08;;
70132;SDS011;57495;49.922;7.966;2023-05-16T09:21:37;5.20;;;1.88;;
70132;SDS011;57495;49.922;7.966;2023-05-16T09:23:41;8.82;;;2.10;;
70132;SDS011;57495;49.922;7.966;2023-05-16T09:25:43;10.52;;;3.60;;
70132;SDS011;57495;49.922;7.966;2023-05-16T09:27:45;10.27;;;2.83;;
70132;SDS011;57495;49.922;7.966;2023-05-16T09:29:49;11.27;;;3.60;;
70132;SDS011;57495;49.922;7.966;2023-05-16T09:31:51;8.90;;;2.45;;
70132;SDS011;57495;49.922;7.966;2023-05-16T09:33:54;8.52;;;3.22;;
70132;SDS011;57495;49.922;7.966;2023-05-16T09:35:58;8.55;;;2.70;;
70132;SDS011;57495;49.922;7.966;2023-05-16T09:38:00;10.40;;;2.65;;
70132;SDS011;57495;49.922;7.966;2023-05-16T09:40:02;8.40;;;2.25;;
70132;SDS011;57495;49.922;7.966;2023-05-16T09:42:04;6.95;;;2.22;;
70132;SDS011;57495;49.922;7.966;2023-05-16T09:44:06;7.28;;;2.00;;
70132;SDS011;57495;49.922;7.966;2023-05-16T09:46:07;8.13;;;1.70;;
70132;SDS011;57495;49.922;7.966;2023-05-16T09:48:13;6.40;;;2.08;;
70132;SDS011;57495;49.922;7.966;2023-05-16T09:50:15;6.90;;;1.63;;
70132;SDS011;57495;49.922;7.966;2023-05-16T09:52:20;6.43;;;1.70;;
70132;SDS011;57495;49.922;7.966;2023-05-16T09:54:30;6.00;;;1.65;;
70132;SDS011;57495;49.922;7.966;2023-05-16T09:56:32;6.28;;;1.83;;
70132;SDS011;57495;49.922;7.966;2023-05-16T09:58:34;6.22;;;1.50;;
70132;SDS011;57495;49.922;7.966;2023-05-16T10:00:36;8.70;;;1.88;;
70132;SDS011;57495;49.922;7.966;2023-05-16T10:02:40;6.85;;;1.15;;
70132;SDS011;57495;49.922;7.966;2023-05-16T10:04:43;9.02;;;1.77;;
70132;SDS011;57495;49.922;7.966;2023-05-16T10:06:45;8.50;;;1.73;;
70132;SDS011;57495;49.922;7.966;2023-05-16T10:08:52;8.43;;;2.20;;
70132;SDS011;57495;49.922;7.966;2023-05-16T10:10:54;7.18;;;2.13;;
70132;SDS011;57495;49.922;7.966;2023-05-16T10:12:56;8.35;;;1.65;;
70132;SDS011;57495;49.922;7.966;2023-05-16T10:15:00;7.93;;;1.55;;
70132;SDS011;57495;49.922;7.966;2023-05-16T10:17:03;7.28;;;1.45;;
70132;SDS011;57495;49.922;7.966;2023-05-16T10:19:07;8.07;;;1.70;;
70132;SDS011;57495;49.922;7.966;2023-05-16T10:21:09;10.90;;;2.38;;
70132;SDS011;57495;49.922;7.966;2023-05-16T10:23:15;8.55;;;2.47;;
70132;SDS011;57495;49.922;7.966;2023-05-16T10:25:22;8.40;;;2.05;;
70132;SDS011;57495;49.922;7.966;2023-05-16T10:27:28;10.77;;;2.28;;
70132;SDS011;57495;49.922;7.966;2023-05-16T10:29:31;7.82;;;1.98;;
70132;SDS011;57495;49.922;7.966;2023-05-16T10:31:32;6.78;;;1.20;;
70132;SDS011;57495;49.922;7.966;2023-05-16T10:33:35;7.20;;;1.00;;
70132;SDS011;57495;49.922;7.966;2023-05-16T10:35:36;9.02;;;1.00;;
70132;SDS011;57495;49.922;7.966;2023-05-16T10:37:38;7.00;;;1.05;;
70132;SDS011;57495;49.922;7.966;2023-05-16T10:39:41;5.97;;;1.30;;
70132;SDS011;57495;49.922;7.966;2023-05-16T10:41:44;5.80;;;1.40;;
70132;SDS011;57495;49.922;7.966;2023-05-16T10:43:54;5.75;;;1.20;;
70132;SDS011;57495;49.922;7.966;2023-05-16T10:45:58;4.15;;;0.93;;
70132;SDS011;57495;49.922;7.966;2023-05-16T10:48:03;6.28;;;1.27;;
70132;SDS011;57495;49.922;7.966;2023-05-16T10:50:07;5.47;;;0.90;;
70132;SDS011;57495;49.922;7.966;2023-05-16T10:52:10;7.82;;;1.00;;
70132;SDS011;57495;49.922;7.966;2023-05-16T10:54:12;8.45;;;1.02;;
70132;SDS011;57495;49.922;7.966;2023-05-16T10:56:14;4.93;;;0.68;;
70132;SDS011;57495;49.922;7.966;2023-05-16T10:58:23;5.93;;;1.10;;
70132;SDS011;57495;49.922;7.966;2023-05-16T11:00:39;5.63;;;0.80;;
70132;SDS011;57495;49.922;7.966;2023-05-16T11:02:41;7.07;;;1.08;;
70132;SDS011;57495;49.922;7.966;2023-05-16T11:04:47;6.80;;;1.60;;
70132;SDS011;57495;49.922;7.966;2023-05-16T11:06:51;7.67;;;1.17;;
70132;SDS011;57495;49.922;7.966;2023-05-16T11:08:56;7.90;;;1.20;;
70132;SDS011;57495;49.922;7.966;2023-05-16T11:13:54;5.32;;;0.90;;
70132;SDS011;57495;49.922;7.966;2023-05-16T11:18:30;6.33;;;1.10;;
70132;SDS011;57495;49.922;7.966;2023-05-16T11:20:32;5.15;;;0.93;;
70132;SDS011;57495;49.922;7.966;2023-05-16T11:22:37;5.10;;;0.73;;
70132;SDS011;57495;49.922;7.966;2023-05-16T11:24:47;5.60;;;0.98;;
70132;SDS011;57495;49.922;7.966;2023-05-16T11:26:52;5.03;;;0.68;;
70132;SDS011;57495;49.922;7.966;2023-05-16T11:28:55;6.77;;;0.80;;
70132;SDS011;57495;49.922;7.966;2023-05-16T11:30:58;8.02;;;1.20;;
70132;SDS011;57495;49.922;7.966;2023-05-16T11:33:01;5.93;;;1.50;;
70132;SDS011;57495;49.922;7.966;2023-05-16T11:35:03;8.15;;;1.20;;
70132;SDS011;57495;49.922;7.966;2023-05-16T11:37:09;15.10;;;1.67;;
70132;SDS011;57495;49.922;7.966;2023-05-16T11:39:11;7.90;;;0.77;;
70132;SDS011;57495;49.922;7.966;2023-05-16T11:41:12;6.43;;;0.77;;
70132;SDS011;57495;49.922;7.966;2023-05-16T11:43:16;7.05;;;1.00;;
70132;SDS011;57495;49.922;7.966;2023-05-16T11:45:20;13.15;;;1.88;;
70132;SDS011;57495;49.922;7.966;2023-05-16T11:47:24;5.63;;;0.80;;
70132;SDS011;57495;49.922;7.966;2023-05-16T11:49:26;6.93;;;0.80;;
70132;SDS011;57495;49.922;7.966;2023-05-16T11:51:29;4.50;;;0.75;;
70132;SDS011;57495;49.922;7.966;2023-05-16T11:53:31;4.95;;;0.70;;
70132;SDS011;57495;49.922;7.966;2023-05-16T11:55:32;5.93;;;0.77;;
70132;SDS011;57495;49.922;7.966;2023-05-16T11:57:34;4.97;;;0.85;;
70132;SDS011;57495;49.922;7.966;2023-05-16T11:59:36;5.83;;;0.80;;
70132;SDS011;57495;49.922;7.966;2023-05-16T12:01:39;4.80;;;0.45;;
70132;SDS011;57495;49.922;7.966;2023-05-16T12:03:40;5.47;;;0.80;;
70132;SDS011;57495;49.922;7.966;2023-05-16T12:05:48;5.53;;;0.77;;
70132;SDS011;57495;49.922;7.966;2023-05-16T12:07:51;3.78;;;0.80;;
70132;SDS011;57495;49.922;7.966;2023-05-16T12:09:54;4.60;;;1.10;;
70132;SDS011;57495;49.922;7.966;2023-05-16T12:11:55;4.57;;;0.60;;
70132;SDS011;57495;49.922;7.966;2023-05-16T12:13:57;6.68;;;0.90;;
70132;SDS011;57495;49.922;7.966;2023-05-16T12:15:58;4.28;;;0.70;;
70132;SDS011;57495;49.922;7.966;2023-05-16T12:18:01;4.13;;;0.63;;
70132;SDS011;57495;49.922;7.966;2023-05-16T12:20:03;6.23;;;1.10;;